Time;durP1;ratioP1;P1;durP2;ratioP2;P2;SDS_P1;SDS_P2;PMS_P1;PMS_P2;Temp;Humidity;BMP_temperature;BMP_pressure;BME280_temperature;BME280_humidity;BME280_pressure;Samples;Min_cycle;Max_cycle;Signal;HPM_P1;HPM_P2
2023/09/26 00:01:03;;;;;;;11.03;10.10;;;15.50;99.90;;;;;;5013549;28;20185;-76
2023/09/26 00:03:29;;;;;;;10.33;9.53;;;15.50;99.90;;;;;;5012870;28;20237;-77
2023/09/26 00:05:55;;;;;;;11.00;9.90;;;15.50;99.90;;;;;;5013010;28;20428;-76
2023/09/26 00:08:21;;;;;;;10.63;9.73;;;15.40;99.90;;;;;;5013825;28;20178;-76
2023/09/26 00:10:47;;;;;;;11.03;9.57;;;15.40;99.90;;;;;;5013400;28;20440;-76
2023/09/26 00:13:16;;;;;;;9.10;8.40;;;15.40;99.90;;;;;;5012032;28;20739;-75
2023/09/26 00:15:42;;;;;;;9.80;8.90;;;15.40;99.90;;;;;;5014165;28;20321;-76
2023/09/26 00:18:08;;;;;;;8.90;8.00;;;15.40;99.90;;;;;;5013151;28;20528;-76
2023/09/26 00:20:38;;;;;;;8.73;7.93;;;15.40;99.90;;;;;;5012292;28;20440;-78
2023/09/26 00:23:05;;;;;;;8.43;7.73;;;15.40;99.90;;;;;;5013912;28;20167;-66
2023/09/26 00:25:31;;;;;;;8.67;7.80;;;15.40;99.90;;;;;;5010316;28;20780;-77
2023/09/26 00:27:57;;;;;;;8.20;7.60;;;15.40;99.90;;;;;;5012080;28;20440;-76
2023/09/26 00:30:27;;;;;;;8.47;7.87;;;15.40;99.90;;;;;;5012457;28;20503;-71
2023/09/26 00:32:53;;;;;;;7.60;6.90;;;15.40;99.90;;;;;;5000581;28;20420;-77
2023/09/26 00:35:19;;;;;;;8.43;7.70;;;15.30;99.90;;;;;;5003832;28;20445;-73
2023/09/26 00:37:50;;;;;;;8.43;7.70;;;15.30;99.90;;;;;;5012490;28;20444;-77
2023/09/26 00:40:19;;;;;;;7.47;6.83;;;15.30;99.90;;;;;;5013654;28;20429;-76
2023/09/26 00:42:45;;;;;;;10.40;7.80;;;15.30;99.90;;;;;;5010388;28;20441;-76
2023/09/26 00:45:12;;;;;;;8.97;8.27;;;15.20;99.90;;;;;;5012858;28;20425;-76
2023/09/26 00:47:40;;;;;;;8.40;7.53;;;15.10;99.90;;;;;;5011346;28;20800;-74
2023/09/26 00:50:10;;;;;;;8.87;8.07;;;15.20;99.90;;;;;;5013013;28;20468;-75
2023/09/26 00:52:37;;;;;;;8.27;7.67;;;15.20;99.90;;;;;;5011917;28;20428;-75
2023/09/26 00:55:04;;;;;;;9.03;8.33;;;15.20;99.90;;;;;;5012715;28;20432;-76
2023/09/26 00:57:34;;;;;;;9.47;8.50;;;15.20;99.90;;;;;;5012804;28;20835;-76
2023/09/26 01:00:02;;;;;;;9.80;8.87;;;15.20;99.90;;;;;;5012136;28;20461;-75
2023/09/26 01:02:27;;;;;;;9.33;8.63;;;15.20;99.90;;;;;;4993492;28;20804;-75
2023/09/26 01:04:54;;;;;;;10.70;9.70;;;15.20;99.90;;;;;;5012775;28;20516;-76
2023/09/26 01:07:21;;;;;;;11.03;10.00;;;15.10;99.90;;;;;;5011788;28;20206;-70
2023/09/26 01:09:47;;;;;;;9.63;8.73;;;15.10;99.90;;;;;;5011814;28;20439;-75
2023/09/26 01:12:14;;;;;;;8.67;8.03;;;15.10;99.90;;;;;;5012570;28;20559;-75
2023/09/26 01:14:40;;;;;;;9.57;8.47;;;15.10;99.90;;;;;;5010688;28;20463;-76
2023/09/26 01:17:06;;;;;;;8.70;8.00;;;15.10;99.90;;;;;;5012189;28;20425;-76
2023/09/26 01:19:32;;;;;;;8.13;7.50;;;15.10;99.90;;;;;;5012395;28;20460;-76
2023/09/26 01:21:58;;;;;;;7.63;7.03;;;15.10;99.90;;;;;;5011895;28;20432;-75
2023/09/26 01:24:24;;;;;;;8.43;7.73;;;15.00;99.90;;;;;;5012458;28;20174;-72
2023/09/26 01:26:50;;;;;;;7.77;7.17;;;15.00;99.90;;;;;;5011842;28;20761;-75
2023/09/26 01:29:15;;;;;;;8.10;7.50;;;15.00;99.90;;;;;;5011688;28;20204;-76
2023/09/26 01:31:42;;;;;;;7.53;6.93;;;14.90;99.90;;;;;;5011487;28;20193;-76
2023/09/26 01:34:07;;;;;;;7.73;7.23;;;14.90;99.90;;;;;;5012089;28;20201;-76
2023/09/26 01:36:33;;;;;;;8.80;8.20;;;14.90;99.90;;;;;;5011379;28;20432;-76
2023/09/26 01:38:59;;;;;;;11.97;7.57;;;14.90;99.90;;;;;;5011934;28;20233;-76
2023/09/26 01:41:26;;;;;;;8.53;7.83;;;14.80;99.90;;;;;;5012216;28;20192;-75
2023/09/26 01:43:52;;;;;;;8.53;7.93;;;14.80;99.90;;;;;;5011946;28;20431;-76
2023/09/26 01:46:22;;;;;;;8.17;7.47;;;14.80;99.90;;;;;;5012113;28;20893;-76
2023/09/26 01:48:47;;;;;;;8.50;7.80;;;14.80;99.90;;;;;;5011962;28;20189;-76
2023/09/26 01:51:14;;;;;;;10.03;9.23;;;14.80;99.90;;;;;;5011807;28;20482;-74
2023/09/26 01:53:39;;;;;;;9.27;8.47;;;14.80;99.90;;;;;;5010728;28;20191;-75
2023/09/26 01:56:05;;;;;;;8.93;8.17;;;14.70;99.90;;;;;;5012106;28;20935;-76
2023/09/26 01:58:32;;;;;;;9.20;8.33;;;14.70;99.90;;;;;;5003951;28;20668;-76
2023/09/26 02:00:58;;;;;;;8.80;8.10;;;14.70;99.90;;;;;;5011723;28;20428;-75
2023/09/26 02:03:24;;;;;;;9.23;8.37;;;14.70;99.90;;;;;;5016021;28;20514;-75
2023/09/26 02:05:51;;;;;;;8.63;8.00;;;14.70;99.90;;;;;;5015737;28;20512;-75
2023/09/26 02:08:16;;;;;;;8.20;7.40;;;14.70;99.90;;;;;;5015654;28;20433;-76
2023/09/26 02:10:42;;;;;;;7.77;7.27;;;14.70;99.90;;;;;;5015774;28;20696;-75
2023/09/26 02:13:11;;;;;;;7.90;7.30;;;14.70;99.90;;;;;;5014966;28;20233;-75
2023/09/26 02:15:36;;;;;;;7.33;6.73;;;14.70;99.90;;;;;;5014234;28;20200;-75
2023/09/26 02:18:02;;;;;;;8.10;7.40;;;14.60;99.90;;;;;;5015574;28;20433;-76
2023/09/26 02:20:28;;;;;;;8.40;7.70;;;14.60;99.90;;;;;;5013047;28;20304;-75
2023/09/26 02:22:54;;;;;;;7.60;7.00;;;14.60;99.90;;;;;;5014860;28;20513;-76
2023/09/26 02:25:20;;;;;;;6.43;5.97;;;14.60;99.90;;;;;;5016355;28;20256;-76
2023/09/26 02:27:48;;;;;;;7.90;6.97;;;14.60;99.90;;;;;;5014038;28;20189;-76
2023/09/26 02:30:17;;;;;;;7.27;6.70;;;14.60;99.90;;;;;;5015305;28;20441;-76
2023/09/26 02:32:42;;;;;;;6.67;6.10;;;14.60;99.90;;;;;;5014809;28;20503;-77
2023/09/26 02:35:11;;;;;;;7.10;6.60;;;14.60;99.90;;;;;;5016041;28;20515;-76
2023/09/26 02:37:38;;;;;;;6.47;5.97;;;14.60;99.90;;;;;;5014544;28;20180;-75
2023/09/26 02:40:09;;;;;;;6.50;6.00;;;14.60;99.90;;;;;;5014684;28;20466;-75
2023/09/26 02:42:36;;;;;;;6.87;6.37;;;14.60;99.90;;;;;;5015115;28;20494;-75
2023/09/26 02:45:02;;;;;;;6.90;6.30;;;14.60;99.90;;;;;;5014903;28;20431;-74
2023/09/26 02:47:28;;;;;;;6.97;6.37;;;14.50;99.90;;;;;;5013928;28;20432;-73
2023/09/26 02:49:54;;;;;;;7.37;6.77;;;14.50;99.90;;;;;;5014763;28;20938;-74
2023/09/26 02:52:22;;;;;;;6.53;6.03;;;14.50;99.90;;;;;;5015847;28;20445;-76
2023/09/26 02:54:48;;;;;;;6.50;6.00;;;14.40;99.90;;;;;;5013631;28;20438;-75
2023/09/26 02:57:17;;;;;;;7.97;7.23;;;14.40;99.90;;;;;;5014676;28;20428;-76
2023/09/26 02:59:42;;;;;;;6.23;5.83;;;14.40;99.90;;;;;;5015014;28;20451;-76
2023/09/26 03:02:08;;;;;;;7.43;6.83;;;14.40;99.90;;;;;;5015601;28;20423;-75
2023/09/26 03:04:34;;;;;;;6.83;6.30;;;14.40;99.90;;;;;;5014973;28;20444;-65
2023/09/26 03:07:00;;;;;;;6.40;5.90;;;14.30;99.90;;;;;;5013874;28;20235;-63
2023/09/26 03:09:26;;;;;;;6.07;5.67;;;14.40;99.90;;;;;;5014784;28;20199;-75
2023/09/26 03:11:52;;;;;;;7.70;7.07;;;14.30;99.90;;;;;;5013416;28;20195;-75
2023/09/26 03:14:20;;;;;;;7.37;6.73;;;14.30;99.90;;;;;;5014769;28;20503;-75
2023/09/26 03:16:46;;;;;;;7.23;6.63;;;14.30;99.90;;;;;;5013640;28;20434;-76
2023/09/26 03:19:12;;;;;;;7.27;6.77;;;14.30;99.90;;;;;;5014245;28;20800;-75
2023/09/26 03:21:38;;;;;;;7.63;6.83;;;14.30;99.90;;;;;;5014655;28;20891;-75
2023/09/26 03:24:04;;;;;;;7.73;7.23;;;14.30;99.90;;;;;;5014365;28;20539;-75
2023/09/26 03:26:30;;;;;;;7.43;6.27;;;14.30;99.90;;;;;;5013947;28;20806;-75
2023/09/26 03:28:56;;;;;;;6.93;6.33;;;14.30;99.90;;;;;;5015113;28;20404;-76
2023/09/26 03:31:22;;;;;;;7.10;6.63;;;14.30;99.90;;;;;;5014166;28;20988;-76
2023/09/26 03:33:49;;;;;;;6.43;6.03;;;14.30;99.90;;;;;;5004232;28;20477;-75
2023/09/26 03:36:15;;;;;;;6.80;6.30;;;14.30;99.90;;;;;;5013858;28;20222;-75
2023/09/26 03:38:41;;;;;;;6.53;6.03;;;14.30;99.90;;;;;;5014208;28;20481;-76
2023/09/26 03:41:07;;;;;;;7.00;6.43;;;14.30;99.90;;;;;;5013621;28;20205;-75
2023/09/26 03:43:33;;;;;;;6.87;6.20;;;14.20;99.90;;;;;;5013305;28;20525;-75
2023/09/26 03:46:03;;;;;;;6.00;5.60;;;14.30;99.90;;;;;;5014759;28;20186;-74
2023/09/26 03:48:30;;;;;;;6.80;6.30;;;14.20;99.90;;;;;;5012970;28;20565;-70
2023/09/26 03:51:05;;;;;;;6.20;5.70;;;14.20;99.90;;;;;;5013743;28;20442;-75
2023/09/26 03:53:31;;;;;;;6.67;6.10;;;14.20;99.90;;;;;;5013611;28;20509;-75
2023/09/26 03:55:56;;;;;;;6.10;5.60;;;14.20;99.90;;;;;;5013773;28;20530;-75
2023/09/26 03:58:22;;;;;;;7.17;6.67;;;14.20;99.90;;;;;;5013209;28;20295;-75
2023/09/26 04:00:48;;;;;;;6.27;5.77;;;14.20;99.90;;;;;;5013641;28;20177;-75
2023/09/26 04:03:14;;;;;;;6.70;6.20;;;14.20;99.90;;;;;;5013075;28;20199;-75
2023/09/26 04:05:40;;;;;;;6.53;6.07;;;14.20;99.90;;;;;;5012239;28;20423;-68
2023/09/26 04:08:07;;;;;;;7.23;6.63;;;14.10;99.90;;;;;;5005426;28;20650;-76
2023/09/26 04:10:39;;;;;;;7.07;6.67;;;14.10;99.90;;;;;;5010988;28;20433;-75
2023/09/26 04:13:05;;;;;;;7.30;6.80;;;14.20;99.90;;;;;;5012703;28;20528;-75
2023/09/26 04:15:31;;;;;;;7.97;7.13;;;14.10;99.90;;;;;;5012111;28;20995;-65
2023/09/26 04:17:56;;;;;;;7.50;6.87;;;14.10;99.90;;;;;;5014017;28;20423;-75
2023/09/26 04:20:23;;;;;;;7.00;6.40;;;14.10;99.90;;;;;;5012428;28;20977;-75
2023/09/26 04:22:49;;;;;;;7.00;6.60;;;14.10;99.90;;;;;;5012634;28;20175;-75
2023/09/26 04:25:15;;;;;;;7.30;6.60;;;14.10;99.90;;;;;;5012084;28;20403;-75
2023/09/26 04:27:42;;;;;;;7.93;7.30;;;14.10;99.90;;;;;;5011372;28;20914;-75
2023/09/26 04:30:09;;;;;;;6.50;6.00;;;14.10;99.90;;;;;;5012544;28;20518;-75
2023/09/26 04:32:35;;;;;;;6.37;5.63;;;14.10;99.90;;;;;;5012424;28;20445;-72
2023/09/26 04:35:00;;;;;;;7.73;6.17;;;14.10;99.90;;;;;;5012314;28;20836;-75
2023/09/26 04:37:26;;;;;;;6.97;6.47;;;14.10;99.90;;;;;;5013115;28;20518;-74
2023/09/26 04:39:52;;;;;;;7.83;7.07;;;14.00;99.90;;;;;;5013055;28;20837;-75
2023/09/26 04:42:18;;;;;;;7.23;6.60;;;14.00;99.90;;;;;;5012494;28;20249;-74
2023/09/26 04:44:43;;;;;;;7.70;7.10;;;14.00;99.90;;;;;;5012203;28;20182;-75
2023/09/26 04:47:09;;;;;;;6.10;5.60;;;14.00;99.90;;;;;;5013772;28;20254;-75
2023/09/26 04:49:35;;;;;;;7.07;6.23;;;14.00;99.90;;;;;;5011776;28;20702;-74
2023/09/26 04:52:02;;;;;;;7.30;6.60;;;14.00;99.90;;;;;;5012665;28;20171;-75
2023/09/26 04:54:28;;;;;;;6.67;5.33;;;14.00;99.90;;;;;;5012589;28;20167;-75
2023/09/26 04:56:53;;;;;;;6.33;5.70;;;14.00;99.90;;;;;;5012852;28;20410;-75
2023/09/26 04:59:19;;;;;;;7.60;6.27;;;14.00;99.90;;;;;;5011801;28;20606;-75
2023/09/26 05:01:49;;;;;;;6.97;6.37;;;14.00;99.90;;;;;;5011342;28;20194;-70
2023/09/26 05:04:15;;;;;;;8.33;6.57;;;13.90;99.90;;;;;;5012763;28;20197;-75
2023/09/26 05:06:41;;;;;;;7.67;6.97;;;13.90;99.90;;;;;;5011026;28;20458;-74
2023/09/26 05:09:07;;;;;;;6.83;6.33;;;13.90;99.90;;;;;;5012842;28;20851;-74
2023/09/26 05:11:33;;;;;;;7.37;6.87;;;13.80;99.90;;;;;;5013278;28;20182;-75
2023/09/26 05:14:00;;;;;;;7.70;7.10;;;13.90;99.90;;;;;;5011965;28;20463;-74
2023/09/26 05:16:26;;;;;;;8.03;7.33;;;13.90;99.90;;;;;;5012187;28;20445;-74
2023/09/26 05:18:52;;;;;;;7.20;6.70;;;13.90;99.90;;;;;;5010673;28;20586;-70
2023/09/26 05:21:18;;;;;;;6.97;6.40;;;13.90;99.90;;;;;;5011321;28;20433;-75
2023/09/26 05:23:44;;;;;;;6.83;6.33;;;13.80;99.90;;;;;;5010624;28;20433;-75
2023/09/26 05:26:11;;;;;;;7.70;7.03;;;13.90;99.90;;;;;;5013109;28;20623;-75
2023/09/26 05:28:38;;;;;;;8.17;7.20;;;13.80;99.90;;;;;;5009781;28;20197;-75
2023/09/26 05:31:05;;;;;;;8.07;7.40;;;13.80;99.90;;;;;;5000499;28;20792;-72
2023/09/26 05:33:31;;;;;;;7.10;6.60;;;13.80;99.90;;;;;;5012891;28;20452;-75
2023/09/26 05:35:57;;;;;;;8.43;7.73;;;13.80;99.90;;;;;;5007019;28;20429;-75
2023/09/26 05:38:25;;;;;;;8.30;7.50;;;13.80;99.90;;;;;;5011194;28;20482;-75
2023/09/26 05:40:51;;;;;;;8.13;7.40;;;13.80;99.90;;;;;;5010190;28;20461;-76
2023/09/26 05:43:17;;;;;;;8.03;7.23;;;13.80;99.90;;;;;;5012820;28;20815;-75
2023/09/26 05:45:43;;;;;;;9.67;8.67;;;13.80;99.90;;;;;;5011252;28;20520;-75
2023/09/26 05:48:08;;;;;;;8.80;7.80;;;13.80;99.90;;;;;;5011724;28;20199;-76
2023/09/26 05:50:34;;;;;;;8.73;7.93;;;13.80;99.90;;;;;;5012832;28;20210;-76
2023/09/26 05:53:01;;;;;;;8.60;7.80;;;13.80;99.90;;;;;;5010950;28;20187;-74
2023/09/26 05:55:26;;;;;;;9.00;8.10;;;13.90;99.90;;;;;;5010677;28;20214;-76
2023/09/26 05:57:52;;;;;;;8.70;7.90;;;13.90;99.90;;;;;;5012154;28;20438;-76
2023/09/26 06:00:18;;;;;;;8.30;7.50;;;14.00;99.90;;;;;;5011019;28;20454;-76
2023/09/26 06:02:44;;;;;;;9.00;8.00;;;14.00;99.90;;;;;;4995837;28;20183;-75
2023/09/26 06:05:13;;;;;;;9.20;8.50;;;14.00;99.90;;;;;;5012272;28;20411;-75
2023/09/26 06:07:40;;;;;;;9.70;8.80;;;14.10;99.90;;;;;;5010872;28;20941;-75
2023/09/26 06:10:06;;;;;;;8.30;7.60;;;14.10;99.90;;;;;;5011075;28;20481;-75
2023/09/26 06:12:32;;;;;;;9.43;8.60;;;14.20;99.90;;;;;;5011424;28;20467;-75
2023/09/26 06:14:58;;;;;;;9.13;8.23;;;14.30;99.90;;;;;;5009828;28;20915;-74
2023/09/26 06:17:24;;;;;;;9.40;8.60;;;14.30;99.90;;;;;;5010718;28;20213;-75
2023/09/26 06:19:49;;;;;;;8.10;7.50;;;14.30;99.90;;;;;;5011221;28;20198;-75
2023/09/26 06:22:16;;;;;;;9.10;8.20;;;14.40;99.90;;;;;;5010444;28;20242;-77
2023/09/26 06:24:42;;;;;;;9.50;8.60;;;14.40;99.90;;;;;;5006271;28;20187;-72
2023/09/26 06:27:08;;;;;;;9.03;8.23;;;14.50;99.90;;;;;;5010247;28;20431;-74
2023/09/26 06:29:41;;;;;;;9.27;8.37;;;14.60;99.90;;;;;;5015747;28;20924;-67
2023/09/26 06:32:10;;;;;;;9.97;8.90;;;14.60;99.90;;;;;;5013429;28;20547;-73
2023/09/26 06:34:39;;;;;;;10.97;9.73;;;14.80;99.90;;;;;;4998499;28;20432;-73
2023/09/26 06:37:05;;;;;;;11.80;10.17;;;15.10;99.90;;;;;;5011321;28;20452;-74
2023/09/26 06:39:31;;;;;;;11.73;10.30;;;15.50;99.90;;;;;;5011473;28;20452;-72
2023/09/26 06:41:57;;;;;;;11.33;10.13;;;15.80;99.90;;;;;;5010952;28;21064;-75
2023/09/26 06:44:22;;;;;;;12.83;11.53;;;15.90;99.90;;;;;;5011140;28;20220;-76
2023/09/26 06:46:48;;;;;;;14.20;11.17;;;16.00;99.90;;;;;;5010128;28;20862;-76
2023/09/26 06:49:14;;;;;;;12.67;11.30;;;16.00;99.90;;;;;;5014441;28;20534;-75
2023/09/26 06:51:40;;;;;;;15.10;12.37;;;16.00;99.90;;;;;;5014295;28;20210;-64
2023/09/26 06:54:06;;;;;;;13.40;12.00;;;16.00;99.90;;;;;;5014762;28;20182;-75
2023/09/26 06:56:32;;;;;;;15.00;11.87;;;16.00;99.90;;;;;;4999976;28;20452;-75
2023/09/26 06:58:58;;;;;;;16.17;12.17;;;16.00;99.90;;;;;;5013779;28;20293;-75
2023/09/26 07:01:23;;;;;;;13.37;12.07;;;16.00;99.90;;;;;;5014490;28;20778;-73
2023/09/26 07:03:49;;;;;;;12.80;11.60;;;16.10;99.90;;;;;;5014393;28;20183;-75
2023/09/26 07:06:16;;;;;;;14.07;12.67;;;16.10;99.90;;;;;;5014020;28;20635;-74
2023/09/26 07:08:46;;;;;;;12.97;11.77;;;16.10;99.90;;;;;;5008201;28;20252;-79
2023/09/26 07:11:12;;;;;;;12.80;11.40;;;16.10;99.90;;;;;;5014329;28;20440;-68
2023/09/26 07:13:39;;;;;;;13.57;11.30;;;16.00;99.90;;;;;;5015251;28;20538;-70
2023/09/26 07:16:05;;;;;;;13.23;11.93;;;16.00;99.90;;;;;;5013892;28;20564;-70
2023/09/26 07:18:36;;;;;;;13.47;11.93;;;15.90;99.90;;;;;;5013181;28;20455;-69
2023/09/26 07:21:05;;;;;;;13.67;11.60;;;16.00;99.90;;;;;;5014534;28;20425;-70
2023/09/26 07:23:35;;;;;;;12.90;11.53;;;16.20;99.90;;;;;;5014069;28;20447;-70
2023/09/26 07:26:05;;;;;;;12.70;11.57;;;16.40;99.90;;;;;;5012814;28;20444;-70
2023/09/26 07:28:31;;;;;;;15.90;14.27;;;16.50;99.90;;;;;;5012708;28;20437;-69
2023/09/26 07:30:57;;;;;;;14.80;13.40;;;16.70;99.90;;;;;;4995110;28;20771;-70
2023/09/26 07:33:23;;;;;;;12.57;11.10;;;16.90;99.90;;;;;;5006860;28;20194;-74
2023/09/26 07:35:52;;;;;;;12.43;10.23;;;17.00;99.90;;;;;;5009745;28;20190;-70
2023/09/26 07:38:17;;;;;;;9.90;9.00;;;17.20;99.90;;;;;;5013630;28;20179;-71
2023/09/26 07:40:43;;;;;;;13.20;11.70;;;17.30;99.90;;;;;;5012668;28;20433;-68
2023/09/26 07:43:09;;;;;;;12.23;11.13;;;17.40;99.90;;;;;;5012241;28;20244;-64
2023/09/26 07:45:39;;;;;;;10.47;9.50;;;17.50;99.90;;;;;;5006478;28;20183;-65
2023/09/26 07:48:05;;;;;;;11.47;9.67;;;17.40;99.90;;;;;;5012938;28;20384;-64
2023/09/26 07:50:30;;;;;;;12.67;10.30;;;17.30;99.90;;;;;;5013466;28;21018;-62
2023/09/26 07:52:56;;;;;;;11.43;10.53;;;17.30;99.90;;;;;;5013322;28;20557;-65
2023/09/26 07:55:24;;;;;;;11.40;10.40;;;17.20;99.90;;;;;;5013609;28;20680;-65
2023/09/26 07:57:50;;;;;;;11.10;10.20;;;17.10;99.90;;;;;;5013641;28;20203;-65
2023/09/26 08:00:16;;;;;;;18.80;14.03;;;17.00;99.90;;;;;;5012881;28;20986;-64
2023/09/26 08:02:41;;;;;;;11.90;10.80;;;16.90;99.90;;;;;;5013031;28;20450;-65
2023/09/26 08:05:07;;;;;;;13.23;9.37;;;16.90;99.90;;;;;;5011692;28;20634;-64
2023/09/26 08:07:33;;;;;;;10.90;9.00;;;17.00;99.90;;;;;;5013395;28;20270;-67
2023/09/26 08:10:00;;;;;;;11.97;9.87;;;17.00;99.90;;;;;;5010882;28;20980;-66
2023/09/26 08:12:30;;;;;;;9.50;8.57;;;17.10;99.90;;;;;;5011766;28;20569;-65
2023/09/26 08:14:58;;;;;;;10.43;9.20;;;17.10;99.90;;;;;;5012102;28;20948;-64
2023/09/26 08:17:24;;;;;;;10.60;9.70;;;17.20;99.90;;;;;;5012981;28;20422;-65
2023/09/26 08:19:50;;;;;;;10.60;9.70;;;17.20;99.90;;;;;;5011492;28;20472;-64
2023/09/26 08:28:05;;;;;;;10.30;9.40;;;17.40;99.90;;;;;;5035047;23;21063;-71
2023/09/26 08:30:33;;;;;;;9.77;8.97;;;17.60;99.90;;;;;;4951914;29;20437;-72
2023/09/26 08:32:58;;;;;;;267.07;170.37;;;17.60;99.90;;;;;;4954626;28;20439;-72
2023/09/26 08:35:24;;;;;;;46.80;34.33;;;17.70;99.90;;;;;;4953233;28;20432;-65
2023/09/26 08:37:50;;;;;;;17.20;15.20;;;17.80;99.90;;;;;;4953981;29;20207;-72
2023/09/26 08:40:18;;;;;;;8.33;7.63;;;17.90;99.90;;;;;;4953708;29;20205;-72
2023/09/26 08:42:49;;;;;;;10.20;8.10;;;18.00;99.90;;;;;;4952833;29;20181;-72
2023/09/26 08:45:15;;;;;;;8.20;7.50;;;18.10;99.90;;;;;;4953804;28;20436;-71
2023/09/26 08:47:43;;;;;;;6.77;6.17;;;18.20;99.90;;;;;;4951126;29;20424;-72
2023/09/26 08:50:09;;;;;;;6.47;5.93;;;18.30;99.90;;;;;;4943657;28;20437;-71
2023/09/26 08:52:36;;;;;;;7.17;5.93;;;18.40;99.90;;;;;;4944011;29;20440;-72
2023/09/26 08:55:03;;;;;;;7.20;6.67;;;18.50;99.90;;;;;;4954476;29;20791;-72
2023/09/26 08:57:30;;;;;;;7.10;6.47;;;18.60;99.90;;;;;;4952821;28;20799;-71
2023/09/26 09:00:02;;;;;;;7.50;7.00;;;18.80;99.90;;;;;;4966057;28;20539;-72
2023/09/26 09:02:32;;;;;;;6.60;6.00;;;19.00;99.90;;;;;;4953810;29;20781;-72
2023/09/26 09:04:58;;;;;;;7.83;7.23;;;19.10;99.90;;;;;;4953127;29;20432;-71
2023/09/26 09:07:24;;;;;;;7.73;7.17;;;19.20;99.90;;;;;;4953951;28;20416;-71
2023/09/26 09:10:07;;;;;;;14.83;10.40;;;19.40;99.90;;;;;;4954808;28;20436;-72
2023/09/26 09:12:38;;;;;;;9.03;8.13;;;19.60;99.90;;;;;;4953468;28;20424;-71
2023/09/26 09:15:19;;;;;;;8.80;8.10;;;19.70;99.90;;;;;;4954557;29;20440;-72
2023/09/26 09:17:46;;;;;;;7.97;7.33;;;19.90;99.90;;;;;;4954337;28;20439;-73
2023/09/26 09:20:16;;;;;;;241.17;175.90;;;20.10;99.90;;;;;;4954806;28;20456;-74
2023/09/26 09:22:46;;;;;;;134.27;95.27;;;20.30;99.90;;;;;;4952320;29;20483;-73
2023/09/26 09:25:12;;;;;;;19.67;17.23;;;20.50;99.90;;;;;;4954803;28;20452;-73
2023/09/26 09:27:38;;;;;;;9.10;7.70;;;20.80;99.90;;;;;;4961812;28;20663;-72
2023/09/26 09:30:08;;;;;;;7.60;7.00;;;21.00;99.90;;;;;;4973671;28;20457;-72
2023/09/26 09:32:37;;;;;;;7.70;6.87;;;21.20;99.90;;;;;;4973417;28;20478;-72
2023/09/26 09:35:03;;;;;;;7.80;7.20;;;21.30;99.90;;;;;;4973274;28;20446;-72
2023/09/26 09:37:29;;;;;;;10.50;9.60;;;21.60;99.90;;;;;;4972943;28;20446;-72
2023/09/26 09:39:55;;;;;;;7.23;6.83;;;21.90;99.90;;;;;;4972976;28;20618;-72
2023/09/26 09:42:22;;;;;;;7.53;6.90;;;22.10;99.90;;;;;;4973248;28;20226;-67
2023/09/26 09:44:48;;;;;;;8.90;8.00;;;22.30;99.90;;;;;;4973127;28;20263;-72
2023/09/26 09:47:22;;;;;;;7.57;6.97;;;22.60;99.90;;;;;;4973157;28;20447;-72
2023/09/26 09:49:48;;;;;;;7.03;6.43;;;22.90;99.90;;;;;;4973442;28;20422;-72
2023/09/26 09:52:17;;;;;;;6.73;6.23;;;23.20;99.30;;;;;;4973165;28;20455;-73
2023/09/26 09:54:45;;;;;;;8.13;7.43;;;23.50;97.50;;;;;;4972530;28;20547;-72
2023/09/26 09:57:21;;;;;;;8.30;7.50;;;23.70;97.50;;;;;;4972801;28;20420;-72
2023/09/26 09:59:49;;;;;;;7.30;6.77;;;24.00;98.10;;;;;;4973804;28;20938;-72
2023/09/26 10:02:15;;;;;;;7.43;6.83;;;24.40;97.00;;;;;;4972950;28;20517;-73
2023/09/26 10:04:47;;;;;;;6.87;6.27;;;24.60;94.40;;;;;;4972314;28;20467;-72
2023/09/26 10:07:15;;;;;;;7.50;7.00;;;24.80;95.00;;;;;;4973684;28;20426;-72
2023/09/26 10:09:42;;;;;;;7.10;6.50;;;25.10;93.30;;;;;;4972101;28;20820;-72
2023/09/26 10:12:10;;;;;;;7.27;6.67;;;25.40;93.70;;;;;;4972934;28;20440;-73
2023/09/26 10:14:35;;;;;;;7.57;6.97;;;25.60;91.80;;;;;;4972193;28;20427;-73
2023/09/26 10:17:04;;;;;;;6.70;6.30;;;25.90;91.10;;;;;;4973854;28;20463;-73
2023/09/26 10:19:31;;;;;;;7.53;6.80;;;26.00;90.60;;;;;;4972135;28;20204;-72
2023/09/26 10:22:17;;;;;;;5.97;5.57;;;26.20;90.80;;;;;;4955405;28;20445;-72
2023/09/26 10:24:53;;;;;;;6.10;5.70;;;26.30;85.40;;;;;;4976317;28;20903;-72
2023/09/26 10:27:31;;;;;;;5.40;5.10;;;26.40;87.80;;;;;;4976316;28;20474;-72
2023/09/26 10:29:57;;;;;;;4.50;4.20;;;26.60;85.70;;;;;;4976754;28;20439;-73
2023/09/26 10:32:34;;;;;;;4.73;4.43;;;26.40;78.10;;;;;;4959101;28;20518;-62
2023/09/26 10:35:22;;;;;;;4.43;4.23;;;26.40;81.50;;;;;;4977032;28;20521;-73
2023/09/26 10:37:53;;;;;;;5.57;5.30;;;26.50;77.70;;;;;;4973863;28;20475;-73
2023/09/26 10:40:18;;;;;;;4.63;4.33;;;26.50;80.40;;;;;;4976558;28;20483;-73
2023/09/26 10:42:46;;;;;;;6.03;5.47;;;26.60;80.10;;;;;;4975666;28;20419;-72
2023/09/26 10:45:13;;;;;;;4.77;4.47;;;26.80;78.50;;;;;;4940458;29;20181;-75
2023/09/26 10:47:40;;;;;;;4.80;4.60;;;26.50;72.80;;;;;;4965652;28;20431;-75
2023/09/26 10:50:13;;;;;;;12.57;11.53;;;26.30;73.60;;;;;;4976175;28;20412;-72
2023/09/26 10:52:48;;;;;;;80.60;72.00;;;26.40;71.10;;;;;;4950276;28;20493;-72
2023/09/26 10:55:19;;;;;;;7.47;7.07;;;26.50;74.40;;;;;;4974603;28;20435;-67
2023/09/26 10:57:45;;;;;;;6.43;6.13;;;26.70;75.80;;;;;;4941601;28;20455;-67
2023/09/26 11:00:13;;;;;;;6.17;5.97;;;26.80;76.20;;;;;;4976230;28;20506;-72
2023/09/26 11:02:41;;;;;;;5.27;5.07;;;26.80;75.60;;;;;;4975032;28;20482;-68
2023/09/26 11:05:11;;;;;;;5.10;4.53;;;26.90;76.00;;;;;;4975843;28;20760;-68
2023/09/26 11:07:38;;;;;;;5.00;4.70;;;26.50;72.70;;;;;;4975258;28;20392;-67
2023/09/26 11:10:05;;;;;;;5.60;5.37;;;26.40;75.50;;;;;;4957107;28;20483;-67
2023/09/26 11:12:31;;;;;;;4.57;4.37;;;26.50;76.50;;;;;;4967790;28;20466;-67
2023/09/26 11:15:01;;;;;;;5.20;4.93;;;26.60;74.00;;;;;;4975641;28;20411;-67
2023/09/26 11:17:28;;;;;;;4.77;4.57;;;26.80;74.70;;;;;;4975859;28;20482;-66
2023/09/26 11:19:58;;;;;;;4.63;4.43;;;26.80;70.80;;;;;;4958117;28;20853;-67
2023/09/26 11:22:25;;;;;;;3.80;3.60;;;26.70;72.10;;;;;;4975536;28;20911;-68
2023/09/26 11:25:07;;;;;;;4.33;3.93;;;26.70;70.20;;;;;;4975544;28;20408;-68
2023/09/26 11:27:44;;;;;;;4.50;4.30;;;26.70;70.20;;;;;;4973758;28;20498;-67
2023/09/26 11:30:14;;;;;;;4.37;4.17;;;26.70;70.70;;;;;;4975402;28;20922;-67
2023/09/26 11:32:42;;;;;;;4.43;4.23;;;26.80;71.00;;;;;;4958005;28;20431;-66
2023/09/26 11:35:09;;;;;;;4.30;4.10;;;26.70;71.60;;;;;;4974656;28;20502;-67
2023/09/26 11:37:38;;;;;;;4.50;4.30;;;26.80;70.40;;;;;;4974708;28;20423;-66
2023/09/26 11:40:11;;;;;;;4.57;4.37;;;26.70;69.60;;;;;;4975750;28;20455;-67
2023/09/26 11:42:46;;;;;;;4.43;4.23;;;26.80;69.10;;;;;;4974535;28;20434;-66
2023/09/26 11:45:26;;;;;;;4.30;4.10;;;27.00;69.70;;;;;;4974656;28;20435;-67
2023/09/26 11:47:58;;;;;;;29.10;26.40;;;26.70;66.40;;;;;;4975157;28;20414;-67
2023/09/26 11:50:25;;;;;;;6.27;5.97;;;26.50;68.20;;;;;;4975198;28;20980;-67
2023/09/26 11:52:51;;;;;;;4.30;4.10;;;26.50;67.80;;;;;;4974331;28;20427;-67
2023/09/26 11:55:20;;;;;;;5.30;5.10;;;26.50;67.30;;;;;;4974963;28;20468;-67
2023/09/26 11:57:50;;;;;;;5.53;5.23;;;26.70;68.70;;;;;;4957013;28;20896;-66
2023/09/26 12:00:20;;;;;;;5.00;4.80;;;26.30;69.80;;;;;;4975357;28;20867;-67
2023/09/26 12:02:50;;;;;;;4.80;4.50;;;26.30;68.70;;;;;;4974171;28;20900;-67
2023/09/26 12:05:23;;;;;;;3.90;3.70;;;26.20;69.80;;;;;;4974797;28;20451;-66
2023/09/26 12:07:51;;;;;;;5.90;5.60;;;26.10;69.00;;;;;;4974747;28;20419;-67
2023/09/26 12:10:18;;;;;;;4.90;4.60;;;25.90;70.80;;;;;;4974437;28;20436;-67
2023/09/26 12:12:45;;;;;;;4.50;4.30;;;25.80;71.60;;;;;;4956050;28;20783;-67
2023/09/26 12:15:27;;;;;;;5.37;5.17;;;25.80;72.40;;;;;;4974834;28;20408;-67
2023/09/26 12:17:56;;;;;;;5.20;4.90;;;25.90;74.40;;;;;;4973949;28;20463;-66
2023/09/26 12:20:24;;;;;;;4.87;4.57;;;25.90;73.50;;;;;;4974431;28;20459;-67
2023/09/26 12:22:51;;;;;;;4.10;3.90;;;25.80;74.40;;;;;;4973570;28;20773;-67
2023/09/26 12:25:19;;;;;;;3.60;3.50;;;25.50;70.90;;;;;;4974859;28;20408;-66
2023/09/26 12:27:45;;;;;;;4.40;4.10;;;25.10;72.80;;;;;;4973300;28;20475;-66
2023/09/26 12:30:12;;;;;;;4.53;4.33;;;25.10;73.90;;;;;;4973988;28;20432;-67
2023/09/26 12:32:38;;;;;;;4.60;4.40;;;25.10;73.80;;;;;;4974298;28;20510;-67
2023/09/26 12:35:05;;;;;;;5.47;4.90;;;24.90;73.60;;;;;;4974197;28;20830;-67
2023/09/26 12:37:31;;;;;;;5.30;5.10;;;24.60;75.30;;;;;;4973487;28;20428;-63
2023/09/26 12:39:57;;;;;;;5.87;5.57;;;24.30;74.20;;;;;;4974693;28;20451;-66
2023/09/26 12:42:25;;;;;;;6.03;5.60;;;24.30;76.70;;;;;;4973931;28;20471;-67
2023/09/26 12:44:51;;;;;;;4.80;4.60;;;24.40;77.30;;;;;;4973288;28;20759;-66
2023/09/26 12:47:17;;;;;;;4.30;4.10;;;24.50;80.00;;;;;;4973028;28;20539;-65
2023/09/26 12:49:46;;;;;;;4.17;3.97;;;24.50;77.20;;;;;;4974032;28;20172;-66